Westwego, Louisiana
Current Conditions -  °F | °C
As of 8:55 AM on Friday 24 Oct 2014 (Local Time) from KVSH Reporting Station
Clear Clear  
Wind Chill: 17°   Ceiling: Unl
Heat Index: 17°   Visibility: 10mi
Dew Point:   Wind: 8mph
Humidity: 55%   Direction: 20°NNE
Pressure: 30.12"   Gusts: NA
Location:  29.91°N, 90.14°W
Report Text: KVSH 241355Z AUTO 02007KT 10SM CLR 17/08 A3012 RMK AO1
Loading
Personal Weather Stations






























Interactive Weather Map
Tropical Storm Tracking
New forecast layout! Learn more

10-Day Weather Forecast

Advertisements
Track Severe Weather on mobile